createdAt,value
2019-05-12T00:00:48.354Z,1.50
2019-05-12T00:03:19.031Z,1.63
2019-05-12T00:05:48.645Z,1.70
2019-05-12T00:08:18.844Z,1.50
2019-05-12T00:10:48.560Z,1.77
2019-05-12T00:13:19.020Z,1.70
2019-05-12T00:15:49.034Z,1.70
2019-05-12T00:18:18.663Z,1.90
2019-05-12T00:20:48.231Z,2.00
2019-05-12T00:23:26.722Z,2.10
2019-05-12T00:25:48.995Z,2.37
2019-05-12T00:28:18.543Z,2.17
2019-05-12T00:30:50.443Z,2.07
2019-05-12T00:33:20.473Z,2.00
2019-05-12T00:35:50.013Z,2.30
2019-05-12T00:38:19.570Z,2.30
2019-05-12T00:40:49.163Z,2.37
2019-05-12T00:43:19.162Z,2.73
2019-05-12T00:45:48.750Z,2.50
2019-05-12T00:48:18.294Z,2.93
2019-05-12T00:50:48.542Z,2.97
2019-05-12T00:53:18.984Z,2.20
2019-05-12T00:55:48.721Z,2.37
2019-05-12T00:58:19.616Z,3.20
2019-05-12T01:00:50.731Z,2.90
2019-05-12T01:03:20.295Z,2.73
2019-05-12T01:05:49.960Z,3.00
2019-05-12T01:08:19.609Z,2.97
2019-05-12T01:10:49.161Z,5.27
2019-05-12T01:13:18.929Z,3.30
2019-05-12T01:15:49.583Z,3.90
2019-05-12T01:18:19.366Z,2.90
2019-05-12T01:20:48.904Z,3.87
2019-05-12T01:23:20.010Z,3.20
2019-05-12T01:25:50.945Z,3.10
2019-05-12T01:28:20.622Z,3.07
2019-05-12T01:30:50.585Z,3.20
2019-05-12T01:33:20.418Z,3.47
2019-05-12T01:35:50.219Z,3.10
2019-05-12T01:38:19.742Z,3.53
2019-05-12T01:40:49.304Z,3.07
2019-05-12T01:43:21.290Z,3.20
2019-05-12T01:45:50.118Z,3.20
2019-05-12T01:48:19.680Z,3.97
2019-05-12T01:50:49.231Z,3.40
2019-05-12T01:53:18.782Z,3.07
2019-05-12T01:55:48.670Z,3.50
2019-05-12T01:58:19.278Z,3.37
2019-05-12T02:00:49.232Z,3.70
2019-05-12T02:03:18.809Z,3.20
2019-05-12T02:05:51.423Z,3.27
2019-05-12T02:08:27.889Z,3.60
2019-05-12T02:11:15.060Z,3.33
2019-05-12T02:13:44.666Z,2.93
2019-05-12T02:16:14.222Z,3.10
2019-05-12T02:18:43.846Z,3.00
2019-05-12T02:21:14.630Z,2.70
2019-05-12T02:23:44.158Z,2.83
2019-05-12T02:26:13.962Z,2.90
2019-05-12T02:28:43.561Z,2.37
2019-05-12T02:31:13.155Z,2.50
2019-05-12T02:33:44.649Z,2.47
2019-05-12T02:36:15.119Z,2.27
2019-05-12T02:38:45.458Z,2.50
2019-05-12T02:41:15.712Z,2.13
2019-05-12T02:43:45.915Z,2.37
2019-05-12T02:46:15.928Z,2.30
2019-05-12T02:48:45.545Z,2.60
2019-05-12T02:51:15.727Z,2.47
2019-05-12T02:53:47.103Z,2.20
2019-05-12T02:56:16.862Z,2.37
2019-05-12T02:58:46.676Z,2.67
2019-05-12T03:01:16.599Z,3.00
2019-05-12T03:03:46.135Z,2.70
2019-05-12T03:06:16.039Z,2.57
2019-05-12T03:08:45.588Z,2.97
2019-05-12T03:11:15.399Z,2.80
2019-05-12T03:13:45.075Z,2.77
2019-05-12T03:16:15.218Z,2.60
2019-05-12T03:18:45.159Z,2.90
2019-05-12T03:21:15.476Z,2.80
2019-05-12T03:23:45.168Z,2.90
2019-05-12T03:26:15.492Z,3.00
2019-05-12T03:28:46.338Z,3.03
2019-05-12T03:31:22.356Z,2.90
2019-05-12T03:33:52.580Z,2.90
2019-05-12T03:36:18.810Z,2.67
2019-05-12T03:38:48.560Z,3.00
2019-05-12T03:41:18.087Z,2.97
2019-05-12T03:43:47.643Z,3.27
2019-05-12T03:46:17.198Z,3.10
2019-05-12T03:48:46.768Z,3.23
2019-05-12T03:51:16.638Z,3.13
2019-05-12T03:53:46.179Z,3.03
2019-05-12T03:56:15.971Z,3.10
2019-05-12T03:58:46.021Z,3.00
2019-05-12T04:01:15.564Z,3.03
2019-05-12T04:03:45.468Z,3.33
2019-05-12T04:06:15.618Z,3.23
2019-05-12T04:08:45.822Z,3.40
2019-05-12T04:11:15.484Z,3.33
2019-05-12T04:13:45.398Z,3.03
2019-05-12T04:16:16.409Z,3.30
2019-05-12T04:18:46.265Z,3.00
2019-05-12T04:21:17.184Z,3.23
2019-05-12T04:23:46.803Z,3.40
2019-05-12T04:26:17.364Z,3.17
2019-05-12T04:28:47.346Z,3.20
2019-05-12T04:31:17.054Z,2.90
2019-05-12T04:33:46.820Z,3.17
2019-05-12T04:36:16.362Z,2.90
2019-05-12T04:38:46.059Z,2.80
2019-05-12T04:41:19.578Z,3.13
2019-05-12T04:43:46.940Z,3.07
2019-05-12T04:46:16.475Z,3.17
2019-05-12T04:48:46.064Z,2.97
2019-05-12T04:51:15.748Z,3.10
2019-05-12T04:53:45.307Z,3.40
2019-05-12T04:56:20.062Z,3.27
2019-05-12T04:58:46.327Z,3.33
2019-05-12T05:01:15.928Z,3.20
2019-05-12T05:03:45.479Z,3.60
2019-05-12T05:06:15.139Z,3.63
2019-05-12T05:08:44.704Z,3.57
2019-05-12T05:11:14.937Z,3.70
2019-05-12T05:13:44.658Z,3.80
2019-05-12T05:16:14.644Z,3.67
2019-05-12T05:18:44.227Z,3.30
2019-05-12T05:21:14.131Z,3.40
2019-05-12T05:23:44.329Z,3.20
2019-05-12T05:26:24.443Z,2.93
2019-05-12T05:28:45.646Z,2.70
2019-05-12T05:31:15.226Z,2.40
2019-05-12T05:33:45.059Z,2.60
2019-05-12T05:36:19.597Z,2.37
2019-05-12T05:38:45.986Z,2.40
2019-05-12T05:41:15.557Z,2.33
2019-05-12T05:43:48.571Z,2.10
2019-05-12T05:46:16.391Z,2.30
2019-05-12T05:48:45.999Z,2.30
2019-05-12T05:51:15.540Z,2.40
2019-05-12T05:53:49.802Z,2.57
2019-05-12T05:56:18.335Z,2.60
2019-05-12T05:58:51.840Z,2.67
2019-05-12T06:01:18.906Z,2.90
2019-05-12T06:03:48.735Z,2.60
2019-05-12T06:06:18.277Z,2.90
2019-05-12T06:08:58.063Z,2.80
2019-05-12T06:11:28.597Z,3.00
2019-05-12T06:14:03.054Z,3.07
2019-05-12T06:16:29.688Z,2.87
2019-05-12T06:18:59.485Z,3.00
2019-05-12T06:21:33.461Z,3.40
2019-05-12T06:24:00.627Z,3.20
2019-05-12T06:26:33.191Z,3.40
2019-05-12T06:29:01.699Z,3.20
2019-05-12T06:31:33.399Z,3.70
2019-05-12T06:34:06.345Z,3.60
2019-05-12T06:36:34.437Z,3.80
2019-05-12T06:39:10.407Z,3.70
2019-05-12T06:41:37.897Z,3.60
2019-05-12T06:44:08.817Z,4.40
2019-05-12T06:46:38.819Z,3.77
2019-05-12T06:49:12.918Z,4.07
2019-05-12T06:51:39.638Z,4.03
2019-05-12T06:54:12.054Z,4.30
2019-05-12T06:56:40.594Z,4.50
2019-05-12T06:59:11.742Z,4.23
2019-05-12T07:01:41.818Z,4.33
2019-05-12T07:04:14.161Z,4.83
2019-05-12T07:06:44.124Z,4.67
2019-05-12T07:09:16.287Z,4.57
2019-05-12T07:11:53.137Z,5.03
2019-05-12T07:14:22.310Z,5.40
2019-05-12T07:16:55.281Z,5.27
2019-05-12T07:19:25.540Z,5.67
2019-05-12T07:21:58.225Z,4.73
2019-05-12T07:24:25.900Z,5.90
2019-05-12T07:27:04.160Z,5.33
2019-05-12T07:29:27.058Z,5.17
2019-05-12T07:31:56.601Z,5.60
2019-05-12T07:34:26.435Z,5.03
2019-05-12T07:36:56.418Z,4.70
2019-05-12T07:39:25.951Z,5.10
2019-05-12T07:41:55.578Z,5.23
2019-05-12T07:44:25.827Z,4.90
2019-05-12T07:46:55.346Z,5.20
2019-05-12T07:49:34.458Z,5.30
2019-05-12T07:51:56.863Z,4.50
2019-05-12T07:54:34.115Z,4.87
2019-05-12T07:57:05.407Z,4.80
2019-05-12T07:59:38.882Z,4.90
2019-05-12T08:02:04.056Z,4.73
2019-05-12T08:04:39.588Z,4.63
2019-05-12T08:07:05.140Z,5.00
2019-05-12T08:09:36.420Z,4.33
2019-05-12T08:12:09.629Z,4.60
2019-05-12T08:14:37.531Z,4.70
2019-05-12T08:17:10.832Z,4.83
2019-05-12T08:19:39.174Z,4.80
2019-05-12T08:22:08.978Z,4.30
2019-05-12T08:24:43.017Z,4.50
2019-05-12T08:27:10.034Z,4.03
2019-05-12T08:29:39.663Z,3.67
2019-05-12T08:32:09.872Z,4.17
2019-05-12T08:34:43.590Z,4.50
2019-05-12T08:37:13.950Z,4.30
2019-05-12T08:39:44.317Z,3.87
2019-05-12T08:42:14.612Z,4.30
2019-05-12T08:44:44.390Z,3.77
2019-05-12T08:47:15.169Z,3.07
2019-05-12T08:49:51.087Z,4.70
2019-05-12T08:52:16.942Z,4.63
2019-05-12T08:54:49.356Z,4.23
2019-05-12T08:57:17.827Z,3.90
2019-05-12T08:59:47.764Z,4.20
2019-05-12T09:02:17.611Z,4.37
2019-05-12T09:04:51.460Z,4.03
2019-05-12T09:07:18.815Z,4.30
2019-05-12T09:09:48.390Z,4.10
2019-05-12T09:12:19.907Z,4.58
2019-05-12T09:14:49.802Z,4.00
2019-05-12T09:17:19.538Z,3.70
2019-05-12T09:19:49.114Z,4.20
2019-05-12T09:22:20.951Z,4.57
2019-05-12T09:24:53.250Z,4.47
2019-05-12T09:27:24.051Z,4.20
2019-05-12T09:29:59.044Z,4.00
2019-05-12T09:32:26.057Z,4.47
2019-05-12T09:34:58.196Z,4.40
2019-05-12T09:37:30.905Z,4.40
2019-05-12T09:39:59.598Z,4.27
2019-05-12T09:42:30.218Z,3.97
2019-05-12T09:45:04.915Z,4.00
2019-05-12T09:47:34.330Z,4.13
2019-05-12T09:50:09.776Z,4.07
2019-05-12T09:52:36.050Z,4.20
2019-05-12T09:55:05.886Z,3.83
2019-05-12T09:57:40.907Z,3.83
2019-05-12T10:00:07.098Z,3.20
2019-05-12T10:02:36.659Z,3.63
2019-05-12T10:05:06.215Z,3.60
2019-05-12T10:07:36.841Z,2.97
2019-05-12T10:10:06.453Z,2.90
2019-05-12T10:12:45.168Z,3.43
2019-05-12T10:15:08.066Z,3.07
2019-05-12T10:17:37.603Z,3.23
2019-05-12T10:20:07.187Z,2.67
2019-05-12T10:22:40.182Z,2.73
2019-05-12T10:25:09.609Z,2.40
2019-05-12T10:27:39.196Z,2.53
2019-05-12T10:30:12.281Z,2.50
2019-05-12T10:32:40.392Z,2.50
2019-05-12T10:35:12.226Z,2.17
2019-05-12T10:37:43.718Z,2.43
2019-05-12T10:40:13.884Z,2.50
2019-05-12T10:42:46.210Z,2.40
2019-05-12T10:45:20.457Z,2.60
2019-05-12T10:47:48.964Z,2.20
2019-05-12T10:50:18.723Z,2.43
2019-05-12T10:52:49.326Z,2.17
2019-05-12T10:55:19.863Z,2.50
2019-05-12T10:57:53.033Z,2.40
2019-05-12T11:00:25.068Z,2.23
2019-05-12T11:02:53.512Z,1.93
2019-05-12T11:05:25.942Z,2.30
2019-05-12T11:07:54.426Z,2.40
2019-05-12T11:10:23.994Z,2.20
2019-05-12T11:12:54.034Z,2.10
2019-05-12T11:15:24.529Z,2.00
2019-05-12T11:18:11.984Z,2.60
2019-05-12T11:20:41.533Z,2.30
2019-05-12T11:23:11.104Z,1.90
2019-05-12T11:25:41.099Z,2.30
2019-05-12T11:28:10.787Z,1.97
2019-05-12T11:30:40.519Z,2.03
2019-05-12T11:33:11.055Z,1.80
2019-05-12T11:35:40.683Z,2.03
2019-05-12T11:38:10.218Z,2.17
2019-05-12T11:40:39.752Z,2.03
2019-05-12T11:43:09.275Z,2.20
2019-05-12T11:45:38.930Z,2.40
2019-05-12T11:48:10.411Z,2.00
2019-05-12T11:50:47.907Z,2.57
2019-05-12T11:53:13.956Z,1.80
2019-05-12T11:55:43.926Z,1.63
2019-05-12T11:58:13.575Z,1.70
2019-05-12T12:00:46.224Z,1.57
2019-05-12T12:03:18.160Z,1.53
2019-05-12T12:05:47.326Z,1.80
2019-05-12T12:08:17.246Z,1.50
2019-05-12T12:10:49.168Z,1.43
2019-05-12T12:13:19.392Z,1.53
2019-05-12T12:15:49.372Z,1.70
2019-05-12T12:18:19.056Z,1.70
2019-05-12T12:20:48.628Z,2.00
2019-05-12T12:23:18.214Z,1.50
2019-05-12T12:25:48.561Z,2.00
2019-05-12T12:28:19.031Z,1.60
2019-05-12T12:30:52.522Z,1.60
2019-05-12T12:33:20.211Z,1.57
2019-05-12T12:35:50.472Z,1.50
2019-05-12T12:38:21.606Z,1.30
2019-05-12T12:40:53.381Z,1.40
2019-05-12T12:43:24.663Z,1.30
2019-05-12T12:46:05.033Z,1.30
2019-05-12T12:48:34.587Z,1.40
2019-05-12T12:51:04.152Z,1.50
2019-05-12T12:53:34.386Z,1.33
2019-05-12T12:56:04.468Z,1.40
2019-05-12T12:58:34.606Z,1.50
2019-05-12T13:01:05.138Z,1.20
2019-05-12T13:03:35.026Z,1.50
2019-05-12T13:06:04.984Z,1.40
2019-05-12T13:08:34.544Z,1.30
2019-05-12T13:11:04.463Z,1.40
2019-05-12T13:13:35.597Z,1.20
2019-05-12T13:16:05.158Z,1.40
2019-05-12T13:18:36.304Z,1.30
2019-05-12T13:21:06.273Z,1.37
2019-05-12T13:23:40.674Z,1.20
2019-05-12T13:26:07.370Z,1.50
2019-05-12T13:28:36.923Z,1.40
2019-05-12T13:31:11.621Z,1.40
2019-05-12T13:33:37.910Z,1.43
2019-05-12T13:36:07.666Z,1.20
2019-05-12T13:38:40.484Z,1.20
2019-05-12T13:41:09.545Z,1.30
2019-05-12T13:43:41.001Z,1.40
2019-05-12T13:46:10.909Z,1.47
2019-05-12T13:48:40.518Z,1.40
2019-05-12T13:51:15.070Z,1.50
2019-05-12T13:53:46.466Z,1.47
2019-05-12T13:56:13.669Z,1.50
2019-05-12T13:58:45.850Z,1.50
2019-05-12T14:01:19.254Z,1.40
2019-05-12T14:03:50.597Z,1.50
2019-05-12T14:06:23.177Z,1.40
2019-05-12T14:08:50.663Z,1.63
2019-05-12T14:11:20.340Z,1.50
2019-05-12T14:13:50.250Z,1.50
2019-05-12T14:16:20.032Z,1.63
2019-05-12T14:18:51.174Z,1.40
2019-05-12T14:21:24.313Z,1.30
2019-05-12T14:23:53.562Z,2.00
2019-05-12T14:26:24.221Z,1.87
2019-05-12T14:28:54.864Z,1.40
2019-05-12T14:31:29.997Z,1.33
2019-05-12T14:33:55.675Z,1.27
2019-05-12T14:36:26.564Z,1.40
2019-05-12T14:39:00.229Z,1.30
2019-05-12T14:41:28.974Z,1.20
2019-05-12T14:44:03.456Z,1.20
2019-05-12T14:46:30.381Z,1.30
2019-05-12T14:48:59.932Z,1.50
2019-05-12T14:51:29.479Z,1.50
2019-05-12T14:53:59.399Z,1.50
2019-05-12T14:56:30.015Z,1.20
2019-05-12T14:59:00.873Z,1.10
2019-05-12T15:01:44.195Z,1.50
2019-05-12T15:04:02.135Z,1.43
2019-05-12T15:06:33.526Z,1.17
2019-05-12T15:09:04.682Z,1.40
2019-05-12T15:11:34.565Z,1.27
2019-05-12T15:14:04.144Z,1.40
2019-05-12T15:16:40.363Z,1.20
2019-05-12T15:19:05.631Z,1.10
2019-05-12T15:21:35.207Z,1.33
2019-05-12T15:24:09.074Z,1.70
2019-05-12T15:26:36.194Z,2.00
2019-05-12T15:29:13.194Z,1.37
2019-05-12T15:31:37.139Z,1.00
2019-05-12T15:34:06.691Z,1.50
2019-05-12T15:36:36.435Z,1.40
2019-05-12T15:39:07.861Z,1.40
2019-05-12T15:41:37.486Z,1.20
2019-05-12T15:44:07.127Z,1.20
2019-05-12T15:46:41.188Z,1.60
2019-05-12T15:49:09.111Z,1.30
2019-05-12T15:51:50.988Z,1.20
2019-05-12T15:54:11.785Z,1.40
2019-05-12T15:56:43.218Z,1.27
2019-05-12T15:59:14.608Z,1.40
2019-05-12T16:01:44.139Z,1.10
2019-05-12T16:04:15.267Z,1.30
2019-05-12T16:06:53.502Z,1.20
2019-05-12T16:09:17.749Z,1.30
2019-05-12T16:11:47.422Z,1.53
2019-05-12T16:14:16.978Z,1.53
2019-05-12T16:16:47.207Z,1.60
2019-05-12T16:19:17.417Z,1.30
2019-05-12T16:21:47.000Z,1.50
2019-05-12T16:24:17.254Z,1.50
2019-05-12T16:26:51.648Z,1.50
2019-05-12T16:29:18.738Z,1.30
2019-05-12T16:31:49.948Z,1.30
2019-05-12T16:34:19.762Z,1.40
2019-05-12T16:36:51.971Z,1.23
2019-05-12T16:39:23.793Z,1.30
2019-05-12T16:41:54.407Z,1.87
2019-05-12T16:44:26.131Z,1.50
2019-05-12T16:46:55.610Z,1.30
2019-05-12T16:49:33.362Z,1.20
2019-05-12T16:51:57.117Z,1.40
2019-05-12T16:54:28.180Z,1.60
2019-05-12T16:57:12.892Z,1.23
2019-05-12T16:59:37.962Z,1.67
2019-05-12T17:02:09.866Z,1.60
2019-05-12T17:04:38.802Z,1.40
2019-05-12T17:07:09.799Z,1.50
2019-05-12T17:09:39.577Z,1.40
2019-05-12T17:12:09.146Z,1.20
2019-05-12T17:14:48.076Z,1.47
2019-05-12T17:17:10.904Z,1.40
2019-05-12T17:19:40.643Z,1.30
2019-05-12T17:22:10.307Z,1.30
2019-05-12T17:24:39.972Z,1.40
2019-05-12T17:27:17.956Z,1.30
2019-05-12T17:29:43.384Z,1.33
2019-05-12T17:32:13.455Z,1.30
2019-05-12T17:34:45.674Z,1.30
2019-05-12T17:37:14.796Z,1.40
2019-05-12T17:39:44.342Z,1.30
2019-05-12T17:42:21.599Z,1.10
2019-05-12T17:44:45.318Z,1.43
2019-05-12T17:47:21.298Z,1.50
2019-05-12T17:49:46.994Z,1.50
2019-05-12T17:52:18.647Z,1.43
2019-05-12T17:54:48.761Z,1.50
2019-05-12T17:57:20.007Z,1.40
2019-05-12T17:59:50.186Z,1.47
2019-05-12T18:02:20.134Z,1.60
2019-05-12T18:04:50.139Z,1.37
2019-05-12T18:07:19.781Z,1.37
2019-05-12T18:09:50.477Z,1.40
2019-05-12T18:12:20.883Z,1.50
2019-05-12T18:14:52.240Z,2.70
2019-05-12T18:17:23.616Z,1.90
2019-05-12T18:19:56.526Z,1.70
2019-05-12T18:22:24.773Z,1.53
2019-05-12T18:24:55.110Z,1.60
2019-05-12T18:27:25.277Z,1.70
2019-05-12T18:29:54.986Z,2.60
2019-05-12T18:32:25.082Z,1.30
2019-05-12T18:34:55.001Z,1.33
2019-05-12T18:37:24.735Z,1.40
2019-05-12T18:39:54.642Z,1.40
2019-05-12T18:42:24.772Z,1.67
2019-05-12T18:44:55.721Z,1.53
2019-05-12T18:47:31.962Z,1.60
2019-05-12T18:49:57.042Z,1.70
2019-05-12T18:52:29.347Z,3.10
2019-05-12T18:54:58.206Z,1.60
2019-05-12T18:57:27.908Z,1.53
2019-05-12T19:00:03.669Z,1.50
2019-05-12T19:02:29.674Z,2.00
2019-05-12T19:04:59.263Z,1.50
2019-05-12T19:07:39.232Z,1.30
2019-05-12T19:10:00.340Z,1.73
2019-05-12T19:12:34.761Z,1.40
2019-05-12T19:15:04.691Z,1.70
2019-05-12T19:17:34.654Z,2.90
2019-05-12T19:20:05.294Z,3.40
2019-05-12T19:22:39.457Z,1.57
2019-05-12T19:25:06.707Z,1.60
2019-05-12T19:27:36.533Z,1.63
2019-05-12T19:30:06.148Z,1.70
2019-05-12T19:32:36.982Z,1.83
2019-05-12T19:35:09.626Z,1.80
2019-05-12T19:37:38.227Z,2.27
2019-05-12T19:40:12.397Z,1.70
2019-05-12T19:42:39.458Z,1.90
2019-05-12T19:45:16.079Z,1.90
2019-05-12T19:47:40.625Z,1.60
2019-05-12T19:50:14.986Z,1.53
2019-05-12T19:52:42.310Z,1.70
2019-05-12T19:55:14.040Z,1.33
2019-05-12T19:57:44.233Z,1.57
2019-05-12T20:00:14.215Z,1.43
2019-05-12T20:02:43.783Z,2.63
2019-05-12T20:05:17.255Z,1.63
2019-05-12T20:07:44.857Z,1.50
2019-05-12T20:10:16.537Z,1.53
2019-05-12T20:12:48.813Z,1.67
2019-05-12T20:15:18.217Z,1.77
2019-05-12T20:17:48.838Z,1.60
2019-05-12T20:20:19.834Z,1.60
2019-05-12T20:22:49.626Z,1.90
2019-05-12T20:25:19.254Z,1.60
2019-05-12T20:27:48.874Z,1.47
2019-05-12T20:30:21.001Z,1.47
2019-05-12T20:32:50.426Z,1.70
2019-05-12T20:35:20.325Z,1.40
2019-05-12T20:37:53.324Z,1.37
2019-05-12T20:40:23.723Z,17.80
2019-05-12T20:43:07.784Z,2.70
2019-05-12T20:45:26.093Z,2.77
2019-05-12T20:47:55.669Z,1.90
2019-05-12T20:50:32.557Z,1.60
2019-05-12T20:52:58.991Z,1.60
2019-05-12T20:55:30.079Z,1.57
2019-05-12T20:57:59.593Z,1.50
2019-05-12T21:00:29.174Z,1.40
2019-05-12T21:02:58.841Z,1.50
2019-05-12T21:05:28.623Z,1.60
2019-05-12T21:08:03.757Z,2.10
2019-05-12T21:10:29.876Z,2.17
2019-05-12T21:12:59.968Z,2.37
2019-05-12T21:15:37.161Z,2.27
2019-05-12T21:18:04.502Z,2.50
2019-05-12T21:20:33.688Z,2.30
2019-05-12T21:23:03.585Z,2.37
2019-05-12T21:25:35.355Z,2.20
2019-05-12T21:28:07.684Z,2.20
2019-05-12T21:30:36.487Z,2.27
2019-05-12T21:33:06.208Z,1.60
2019-05-12T21:35:40.784Z,1.80
2019-05-12T21:38:07.371Z,1.90
2019-05-12T21:40:37.686Z,1.70
2019-05-12T21:43:07.482Z,1.90
2019-05-12T21:45:37.007Z,2.00
2019-05-12T21:48:06.786Z,1.90
2019-05-12T21:50:38.342Z,2.17
2019-05-12T21:53:10.366Z,2.13
2019-05-12T21:55:39.464Z,1.90
2019-05-12T21:58:12.015Z,1.80
2019-05-12T22:00:44.952Z,1.90
2019-05-12T22:03:15.629Z,1.97
2019-05-12T22:05:51.646Z,2.00
2019-05-12T22:08:22.107Z,1.73
2019-05-12T22:10:49.582Z,1.80
2019-05-12T22:13:19.739Z,1.50
2019-05-12T22:15:51.552Z,1.90
2019-05-12T22:18:20.889Z,1.93
2019-05-12T22:21:00.548Z,1.80
2019-05-12T22:23:24.541Z,1.47
2019-05-12T22:25:55.659Z,1.80
2019-05-12T22:28:25.052Z,1.60
2019-05-12T22:30:55.232Z,2.00
2019-05-12T22:33:24.782Z,1.93
2019-05-12T22:36:05.116Z,2.07
2019-05-12T22:38:26.267Z,1.93
2019-05-12T22:40:59.739Z,1.80
2019-05-12T22:43:31.474Z,1.63
2019-05-12T22:46:01.039Z,1.77
2019-05-12T22:48:37.275Z,2.00
2019-05-12T22:51:06.157Z,1.90
2019-05-12T22:53:34.838Z,1.80
2019-05-12T22:56:12.306Z,1.70
2019-05-12T22:58:35.918Z,1.73
2019-05-12T23:01:06.129Z,1.57
2019-05-12T23:03:35.930Z,1.90
2019-05-12T23:06:20.440Z,1.70
2019-05-12T23:08:38.765Z,1.83
2019-05-12T23:11:08.838Z,1.93
2019-05-12T23:13:42.440Z,1.70
2019-05-12T23:16:09.667Z,1.90
2019-05-12T23:18:39.220Z,1.70
2019-05-12T23:21:13.494Z,1.40
2019-05-12T23:23:40.065Z,1.80
2019-05-12T23:26:09.591Z,1.70
2019-05-12T23:28:40.495Z,1.50
2019-05-12T23:31:10.419Z,1.83
2019-05-12T23:33:40.238Z,1.70
2019-05-12T23:36:15.877Z,1.80
2019-05-12T23:38:43.911Z,1.70
2019-05-12T23:41:13.584Z,1.70
2019-05-12T23:43:43.294Z,1.63
2019-05-12T23:46:12.866Z,1.87
2019-05-12T23:48:43.993Z,1.87
2019-05-12T23:51:14.327Z,2.10
2019-05-12T23:53:44.071Z,1.90
2019-05-12T23:56:15.871Z,2.10
2019-05-12T23:58:45.426Z,1.60
